Main page
METAR-TAF:

METAR-TAF

Airports :

RAF Ascension Island

Georgetown, Ascension Island

latitude: 07-58S, longitude: 014-24W, elevation: 86 m

Current weather observation

The report was made 2 minutes ago, at 08:50 UTC
Wind 14 kt from the Southeast
Temperature 28°C
Humidity 74%
Pressure 1012 hPa
Visibility 10 km or more
Few clouds at a height of 1800 ft

METAR: FHAW 200850Z 13014KT 9999 FEW018 28/23 Q1012 BLU NOSIG

Time: 08:52 (08:52 UTC)

Forecast

The report was made 25 hours and 22 minutes ago, at 07:30 UTC
Forecast valid from 20 at 09 UTC to 21 at 03 UTC
Wind 13 kt from the Southeast
Visibility 10 km or more
Few clouds at a height of 2200 ft
Temporary
from 20 at 09 UTC to 20 at 18 UTC
Wind 15 kt from the Southeast with gusts up to 25 kt
Probability 30% :
Temporary
from 20 at 09 UTC to 20 at 01 UTC
Scattered clouds at a height of 1800 ft

TAF: FHAW 200730Z 2009/2103 14013KT 9999 FEW022 TEMPO 2009/2018 13015G25KT PROB30 TEMPO 2009/20012 SCT018

Weather observations and forecasts of more than 4000 airports (METAR and TAF reports).

The available stations are represented by yellow and red dots on the map.

Hover mouse over dot to see the name of the station.

Then click to see weather observations and forecasts.

To change the map : click on the green buttons with a black cross to zoom in, on the green button with a dash to zoom out, or on the green arrows for adjacent maps.


METAR-TAF: